sensor_id;sensor_type;location;lat;lon;timestamp;P1;durP1;ratioP1;P2;durP2;ratioP2
47812;SDS011;34221;45.296;9.516;2023-06-19T00:00:08;1.20;;;0.90;;
47812;SDS011;34221;45.296;9.516;2023-06-19T00:00:26;1.40;;;1.02;;
47812;SDS011;34221;45.296;9.516;2023-06-19T00:00:44;1.08;;;0.93;;
47812;SDS011;34221;45.296;9.516;2023-06-19T00:00:58;0.77;;;0.70;;
47812;SDS011;34221;45.296;9.516;2023-06-19T00:01:13;1.00;;;0.80;;
47812;SDS011;34221;45.296;9.516;2023-06-19T00:01:28;1.20;;;1.00;;
47812;SDS011;34221;45.296;9.516;2023-06-19T00:01:43;1.17;;;1.00;;
47812;SDS011;34221;45.296;9.516;2023-06-19T00:01:58;1.00;;;0.88;;
47812;SDS011;34221;45.296;9.516;2023-06-19T00:02:13;1.13;;;0.93;;
47812;SDS011;34221;45.296;9.516;2023-06-19T00:02:28;1.45;;;1.08;;
47812;SDS011;34221;45.296;9.516;2023-06-19T00:02:43;1.48;;;1.00;;
47812;SDS011;34221;45.296;9.516;2023-06-19T00:02:57;1.15;;;0.93;;
47812;SDS011;34221;45.296;9.516;2023-06-19T00:03:12;1.02;;;0.90;;
47812;SDS011;34221;45.296;9.516;2023-06-19T00:03:27;1.05;;;0.80;;
47812;SDS011;34221;45.296;9.516;2023-06-19T00:03:42;1.30;;;0.80;;
47812;SDS011;34221;45.296;9.516;2023-06-19T00:03:57;1.50;;;1.00;;
47812;SDS011;34221;45.296;9.516;2023-06-19T00:04:11;1.10;;;0.90;;
47812;SDS011;34221;45.296;9.516;2023-06-19T00:04:26;1.00;;;0.82;;
47812;SDS011;34221;45.296;9.516;2023-06-19T00:04:41;1.25;;;1.00;;
47812;SDS011;34221;45.296;9.516;2023-06-19T00:04:56;1.37;;;1.00;;
47812;SDS011;34221;45.296;9.516;2023-06-19T00:05:11;1.37;;;1.00;;
47812;SDS011;34221;45.296;9.516;2023-06-19T00:05:27;1.25;;;1.00;;
47812;SDS011;34221;45.296;9.516;2023-06-19T00:05:42;1.25;;;1.00;;
47812;SDS011;34221;45.296;9.516;2023-06-19T00:05:56;1.40;;;1.10;;
47812;SDS011;34221;45.296;9.516;2023-06-19T00:06:11;1.33;;;1.03;;
47812;SDS011;34221;45.296;9.516;2023-06-19T00:06:28;1.58;;;1.17;;
47812;SDS011;34221;45.296;9.516;2023-06-19T00:06:43;1.67;;;1.17;;
47812;SDS011;34221;45.296;9.516;2023-06-19T00:06:59;1.65;;;1.10;;
47812;SDS011;34221;45.296;9.516;2023-06-19T00:07:14;1.42;;;1.08;;
47812;SDS011;34221;45.296;9.516;2023-06-19T00:07:29;1.30;;;1.00;;
47812;SDS011;34221;45.296;9.516;2023-06-19T00:07:44;1.40;;;1.13;;
47812;SDS011;34221;45.296;9.516;2023-06-19T00:07:58;1.80;;;1.23;;
47812;SDS011;34221;45.296;9.516;2023-06-19T00:08:13;2.25;;;1.50;;
47812;SDS011;34221;45.296;9.516;2023-06-19T00:08:28;2.23;;;1.50;;
47812;SDS011;34221;45.296;9.516;2023-06-19T00:08:43;1.90;;;1.40;;
47812;SDS011;34221;45.296;9.516;2023-06-19T00:08:57;2.10;;;1.60;;
47812;SDS011;34221;45.296;9.516;2023-06-19T00:09:12;1.95;;;1.48;;
47812;SDS011;34221;45.296;9.516;2023-06-19T00:09:27;1.48;;;1.20;;
47812;SDS011;34221;45.296;9.516;2023-06-19T00:09:42;1.30;;;1.10;;
47812;SDS011;34221;45.296;9.516;2023-06-19T00:09:56;1.35;;;1.10;;
47812;SDS011;34221;45.296;9.516;2023-06-19T00:10:11;1.77;;;1.30;;
47812;SDS011;34221;45.296;9.516;2023-06-19T00:10:26;1.75;;;1.20;;
47812;SDS011;34221;45.296;9.516;2023-06-19T00:10:41;1.60;;;1.10;;
47812;SDS011;34221;45.296;9.516;2023-06-19T00:10:55;1.45;;;1.10;;
47812;SDS011;34221;45.296;9.516;2023-06-19T00:11:10;1.30;;;1.10;;
47812;SDS011;34221;45.296;9.516;2023-06-19T00:11:25;1.67;;;1.27;;
47812;SDS011;34221;45.296;9.516;2023-06-19T00:11:41;2.35;;;1.35;;
47812;SDS011;34221;45.296;9.516;2023-06-19T00:11:55;2.22;;;1.20;;
47812;SDS011;34221;45.296;9.516;2023-06-19T00:12:12;1.33;;;1.02;;
47812;SDS011;34221;45.296;9.516;2023-06-19T00:12:27;1.15;;;1.00;;
47812;SDS011;34221;45.296;9.516;2023-06-19T00:12:41;1.25;;;1.05;;
47812;SDS011;34221;45.296;9.516;2023-06-19T00:12:56;1.30;;;1.00;;
47812;SDS011;34221;45.296;9.516;2023-06-19T00:13:11;1.50;;;1.10;;
47812;SDS011;34221;45.296;9.516;2023-06-19T00:13:25;1.63;;;1.10;;
47812;SDS011;34221;45.296;9.516;2023-06-19T00:13:40;1.33;;;0.90;;
47812;SDS011;34221;45.296;9.516;2023-06-19T00:13:55;1.52;;;1.00;;
47812;SDS011;34221;45.296;9.516;2023-06-19T00:14:10;1.30;;;0.98;;
47812;SDS011;34221;45.296;9.516;2023-06-19T00:14:25;0.95;;;0.85;;
47812;SDS011;34221;45.296;9.516;2023-06-19T00:14:40;1.30;;;0.95;;
47812;SDS011;34221;45.296;9.516;2023-06-19T00:14:55;1.20;;;0.95;;
47812;SDS011;34221;45.296;9.516;2023-06-19T00:15:09;1.10;;;0.95;;
47812;SDS011;34221;45.296;9.516;2023-06-19T00:15:25;1.08;;;0.93;;
47812;SDS011;34221;45.296;9.516;2023-06-19T00:15:39;1.33;;;1.00;;
47812;SDS011;34221;45.296;9.516;2023-06-19T00:15:54;1.40;;;1.10;;
47812;SDS011;34221;45.296;9.516;2023-06-19T00:16:09;1.40;;;1.13;;
47812;SDS011;34221;45.296;9.516;2023-06-19T00:16:24;1.63;;;1.30;;
47812;SDS011;34221;45.296;9.516;2023-06-19T00:16:41;1.63;;;1.17;;
47812;SDS011;34221;45.296;9.516;2023-06-19T00:16:56;1.23;;;0.90;;
47812;SDS011;34221;45.296;9.516;2023-06-19T00:17:11;1.10;;;1.00;;
47812;SDS011;34221;45.296;9.516;2023-06-19T00:17:27;1.35;;;1.00;;
47812;SDS011;34221;45.296;9.516;2023-06-19T00:17:42;1.40;;;0.98;;
47812;SDS011;34221;45.296;9.516;2023-06-19T00:17:57;1.48;;;1.05;;
47812;SDS011;34221;45.296;9.516;2023-06-19T00:18:12;1.42;;;1.00;;
47812;SDS011;34221;45.296;9.516;2023-06-19T00:18:27;1.50;;;1.10;;
47812;SDS011;34221;45.296;9.516;2023-06-19T00:18:42;1.60;;;1.10;;
47812;SDS011;34221;45.296;9.516;2023-06-19T00:18:57;1.87;;;1.20;;
47812;SDS011;34221;45.296;9.516;2023-06-19T00:19:12;1.90;;;1.30;;
47812;SDS011;34221;45.296;9.516;2023-06-19T00:19:27;1.63;;;1.15;;
47812;SDS011;34221;45.296;9.516;2023-06-19T00:19:45;1.50;;;1.10;;
47812;SDS011;34221;45.296;9.516;2023-06-19T00:20:00;1.40;;;1.20;;
47812;SDS011;34221;45.296;9.516;2023-06-19T00:20:15;1.50;;;1.25;;
47812;SDS011;34221;45.296;9.516;2023-06-19T00:20:32;1.75;;;1.30;;
47812;SDS011;34221;45.296;9.516;2023-06-19T00:20:48;1.60;;;1.10;;
47812;SDS011;34221;45.296;9.516;2023-06-19T00:21:03;1.33;;;1.08;;
47812;SDS011;34221;45.296;9.516;2023-06-19T00:21:19;1.40;;;1.17;;
47812;SDS011;34221;45.296;9.516;2023-06-19T00:21:34;1.60;;;1.17;;
47812;SDS011;34221;45.296;9.516;2023-06-19T00:21:49;1.50;;;1.10;;
47812;SDS011;34221;45.296;9.516;2023-06-19T00:22:04;1.23;;;1.00;;
47812;SDS011;34221;45.296;9.516;2023-06-19T00:22:19;1.48;;;1.00;;
47812;SDS011;34221;45.296;9.516;2023-06-19T00:22:34;1.70;;;1.10;;
47812;SDS011;34221;45.296;9.516;2023-06-19T00:22:49;1.40;;;1.00;;
47812;SDS011;34221;45.296;9.516;2023-06-19T00:23:05;1.10;;;0.95;;
47812;SDS011;34221;45.296;9.516;2023-06-19T00:23:24;1.02;;;0.82;;
47812;SDS011;34221;45.296;9.516;2023-06-19T00:23:39;1.10;;;0.90;;
47812;SDS011;34221;45.296;9.516;2023-06-19T00:23:54;1.30;;;1.00;;
47812;SDS011;34221;45.296;9.516;2023-06-19T00:24:09;1.77;;;1.20;;
47812;SDS011;34221;45.296;9.516;2023-06-19T00:24:25;1.80;;;1.20;;
47812;SDS011;34221;45.296;9.516;2023-06-19T00:24:39;1.88;;;1.17;;
47812;SDS011;34221;45.296;9.516;2023-06-19T00:24:54;1.60;;;1.10;;
47812;SDS011;34221;45.296;9.516;2023-06-19T00:25:09;1.13;;;0.90;;
47812;SDS011;34221;45.296;9.516;2023-06-19T00:25:24;1.02;;;0.80;;
47812;SDS011;34221;45.296;9.516;2023-06-19T00:25:42;0.80;;;0.77;;
47812;SDS011;34221;45.296;9.516;2023-06-19T00:25:58;1.00;;;0.90;;
47812;SDS011;34221;45.296;9.516;2023-06-19T00:26:15;1.38;;;1.13;;
47812;SDS011;34221;45.296;9.516;2023-06-19T00:26:30;1.83;;;1.33;;
47812;SDS011;34221;45.296;9.516;2023-06-19T00:26:46;1.85;;;1.33;;
47812;SDS011;34221;45.296;9.516;2023-06-19T00:27:00;1.63;;;1.20;;
47812;SDS011;34221;45.296;9.516;2023-06-19T00:27:16;1.80;;;1.20;;
47812;SDS011;34221;45.296;9.516;2023-06-19T00:27:31;1.65;;;1.13;;
47812;SDS011;34221;45.296;9.516;2023-06-19T00:27:46;1.50;;;1.10;;
47812;SDS011;34221;45.296;9.516;2023-06-19T00:28:02;1.55;;;1.05;;
47812;SDS011;34221;45.296;9.516;2023-06-19T00:28:18;1.55;;;1.00;;
47812;SDS011;34221;45.296;9.516;2023-06-19T00:28:35;1.73;;;1.20;;
47812;SDS011;34221;45.296;9.516;2023-06-19T00:28:53;1.63;;;1.15;;
47812;SDS011;34221;45.296;9.516;2023-06-19T00:29:08;2.03;;;1.10;;
47812;SDS011;34221;45.296;9.516;2023-06-19T00:29:22;1.90;;;1.10;;
47812;SDS011;34221;45.296;9.516;2023-06-19T00:29:42;1.27;;;1.02;;
47812;SDS011;34221;45.296;9.516;2023-06-19T00:29:56;1.40;;;1.10;;
47812;SDS011;34221;45.296;9.516;2023-06-19T00:30:16;1.50;;;1.00;;
47812;SDS011;34221;45.296;9.516;2023-06-19T00:30:33;1.30;;;1.00;;
47812;SDS011;34221;45.296;9.516;2023-06-19T00:30:47;1.33;;;1.00;;
47812;SDS011;34221;45.296;9.516;2023-06-19T00:31:02;1.35;;;1.00;;
47812;SDS011;34221;45.296;9.516;2023-06-19T00:31:17;1.63;;;1.10;;
47812;SDS011;34221;45.296;9.516;2023-06-19T00:31:32;1.60;;;1.08;;
47812;SDS011;34221;45.296;9.516;2023-06-19T00:31:47;1.30;;;1.07;;
47812;SDS011;34221;45.296;9.516;2023-06-19T00:32:03;1.60;;;1.27;;
47812;SDS011;34221;45.296;9.516;2023-06-19T00:32:18;1.40;;;1.08;;
47812;SDS011;34221;45.296;9.516;2023-06-19T00:32:34;1.30;;;1.05;;
47812;SDS011;34221;45.296;9.516;2023-06-19T00:33:00;1.15;;;1.00;;
47812;SDS011;34221;45.296;9.516;2023-06-19T00:33:17;1.13;;;1.00;;
47812;SDS011;34221;45.296;9.516;2023-06-19T00:33:32;1.50;;;1.10;;
47812;SDS011;34221;45.296;9.516;2023-06-19T00:33:47;1.70;;;1.27;;
47812;SDS011;34221;45.296;9.516;2023-06-19T00:34:02;1.48;;;1.15;;
47812;SDS011;34221;45.296;9.516;2023-06-19T00:34:17;1.15;;;1.00;;
47812;SDS011;34221;45.296;9.516;2023-06-19T00:34:32;1.23;;;1.00;;
47812;SDS011;34221;45.296;9.516;2023-06-19T00:34:46;1.40;;;1.13;;
47812;SDS011;34221;45.296;9.516;2023-06-19T00:35:01;1.45;;;1.15;;
47812;SDS011;34221;45.296;9.516;2023-06-19T00:35:17;1.27;;;1.00;;
47812;SDS011;34221;45.296;9.516;2023-06-19T00:35:32;1.30;;;0.98;;
47812;SDS011;34221;45.296;9.516;2023-06-19T00:35:49;1.25;;;0.93;;
47812;SDS011;34221;45.296;9.516;2023-06-19T00:36:11;1.08;;;0.90;;
47812;SDS011;34221;45.296;9.516;2023-06-19T00:36:27;1.60;;;1.10;;
47812;SDS011;34221;45.296;9.516;2023-06-19T00:36:41;1.40;;;1.00;;
47812;SDS011;34221;45.296;9.516;2023-06-19T00:36:56;1.30;;;0.90;;
47812;SDS011;34221;45.296;9.516;2023-06-19T00:37:12;1.23;;;0.90;;
47812;SDS011;34221;45.296;9.516;2023-06-19T00:37:27;1.38;;;0.90;;
47812;SDS011;34221;45.296;9.516;2023-06-19T00:37:47;2.78;;;1.13;;
47812;SDS011;34221;45.296;9.516;2023-06-19T00:38:02;2.08;;;1.08;;
47812;SDS011;34221;45.296;9.516;2023-06-19T00:38:17;1.40;;;1.00;;
47812;SDS011;34221;45.296;9.516;2023-06-19T00:38:32;1.10;;;0.88;;
47812;SDS011;34221;45.296;9.516;2023-06-19T00:38:47;1.03;;;0.90;;
47812;SDS011;34221;45.296;9.516;2023-06-19T00:39:05;1.23;;;0.90;;
47812;SDS011;34221;45.296;9.516;2023-06-19T00:39:22;1.37;;;1.10;;
47812;SDS011;34221;45.296;9.516;2023-06-19T00:39:40;1.50;;;1.10;;
47812;SDS011;34221;45.296;9.516;2023-06-19T00:39:55;1.23;;;0.98;;
47812;SDS011;34221;45.296;9.516;2023-06-19T00:40:19;1.10;;;0.90;;
47812;SDS011;34221;45.296;9.516;2023-06-19T00:40:40;1.52;;;1.10;;
47812;SDS011;34221;45.296;9.516;2023-06-19T00:40:57;1.27;;;1.00;;
47812;SDS011;34221;45.296;9.516;2023-06-19T00:41:11;1.40;;;1.00;;
47812;SDS011;34221;45.296;9.516;2023-06-19T00:41:26;1.30;;;1.00;;
47812;SDS011;34221;45.296;9.516;2023-06-19T00:41:42;1.20;;;0.90;;
47812;SDS011;34221;45.296;9.516;2023-06-19T00:41:58;1.27;;;0.98;;
47812;SDS011;34221;45.296;9.516;2023-06-19T00:42:13;1.33;;;1.00;;
47812;SDS011;34221;45.296;9.516;2023-06-19T00:42:28;1.20;;;0.93;;
47812;SDS011;34221;45.296;9.516;2023-06-19T00:42:43;0.95;;;0.80;;
47812;SDS011;34221;45.296;9.516;2023-06-19T00:42:57;0.87;;;0.77;;
47812;SDS011;34221;45.296;9.516;2023-06-19T00:43:12;1.00;;;0.85;;
47812;SDS011;34221;45.296;9.516;2023-06-19T00:43:27;1.40;;;1.00;;
47812;SDS011;34221;45.296;9.516;2023-06-19T00:43:42;1.48;;;1.08;;
47812;SDS011;34221;45.296;9.516;2023-06-19T00:43:57;1.33;;;0.90;;
47812;SDS011;34221;45.296;9.516;2023-06-19T00:44:12;1.23;;;0.80;;
47812;SDS011;34221;45.296;9.516;2023-06-19T00:44:27;1.20;;;0.82;;
47812;SDS011;34221;45.296;9.516;2023-06-19T00:44:43;1.05;;;0.85;;
47812;SDS011;34221;45.296;9.516;2023-06-19T00:44:58;1.08;;;0.93;;
47812;SDS011;34221;45.296;9.516;2023-06-19T00:45:13;1.55;;;1.05;;
47812;SDS011;34221;45.296;9.516;2023-06-19T00:45:28;1.52;;;0.95;;
47812;SDS011;34221;45.296;9.516;2023-06-19T00:45:44;1.42;;;0.90;;
47812;SDS011;34221;45.296;9.516;2023-06-19T00:45:59;1.43;;;0.90;;
47812;SDS011;34221;45.296;9.516;2023-06-19T00:46:15;1.05;;;0.90;;
47812;SDS011;34221;45.296;9.516;2023-06-19T00:46:30;1.20;;;0.95;;
47812;SDS011;34221;45.296;9.516;2023-06-19T00:46:45;1.10;;;0.90;;
47812;SDS011;34221;45.296;9.516;2023-06-19T00:47:01;1.00;;;0.88;;
47812;SDS011;34221;45.296;9.516;2023-06-19T00:47:17;1.05;;;0.90;;
47812;SDS011;34221;45.296;9.516;2023-06-19T00:47:33;1.20;;;0.98;;
47812;SDS011;34221;45.296;9.516;2023-06-19T00:47:48;1.25;;;0.90;;
47812;SDS011;34221;45.296;9.516;2023-06-19T00:48:04;1.20;;;0.88;;
47812;SDS011;34221;45.296;9.516;2023-06-19T00:48:19;1.33;;;0.90;;
47812;SDS011;34221;45.296;9.516;2023-06-19T00:48:34;1.35;;;0.90;;
47812;SDS011;34221;45.296;9.516;2023-06-19T00:48:49;1.40;;;1.00;;
47812;SDS011;34221;45.296;9.516;2023-06-19T00:49:06;1.58;;;1.10;;
47812;SDS011;34221;45.296;9.516;2023-06-19T00:49:21;2.08;;;1.40;;
47812;SDS011;34221;45.296;9.516;2023-06-19T00:49:36;2.20;;;1.50;;
47812;SDS011;34221;45.296;9.516;2023-06-19T00:49:51;1.73;;;1.30;;
47812;SDS011;34221;45.296;9.516;2023-06-19T00:50:07;1.88;;;1.40;;
47812;SDS011;34221;45.296;9.516;2023-06-19T00:50:22;2.05;;;1.50;;
47812;SDS011;34221;45.296;9.516;2023-06-19T00:50:37;2.00;;;1.50;;
47812;SDS011;34221;45.296;9.516;2023-06-19T00:50:52;2.33;;;1.50;;
47812;SDS011;34221;45.296;9.516;2023-06-19T00:51:07;2.40;;;1.42;;
47812;SDS011;34221;45.296;9.516;2023-06-19T00:51:22;1.90;;;1.23;;
47812;SDS011;34221;45.296;9.516;2023-06-19T00:51:37;1.60;;;1.20;;
47812;SDS011;34221;45.296;9.516;2023-06-19T00:52:11;1.80;;;1.30;;
47812;SDS011;34221;45.296;9.516;2023-06-19T00:52:25;1.45;;;1.20;;
47812;SDS011;34221;45.296;9.516;2023-06-19T00:52:40;1.60;;;1.20;;
47812;SDS011;34221;45.296;9.516;2023-06-19T00:52:57;1.98;;;1.38;;
47812;SDS011;34221;45.296;9.516;2023-06-19T00:53:12;1.50;;;1.17;;
47812;SDS011;34221;45.296;9.516;2023-06-19T00:53:27;1.23;;;1.08;;
47812;SDS011;34221;45.296;9.516;2023-06-19T00:53:42;1.60;;;1.20;;
47812;SDS011;34221;45.296;9.516;2023-06-19T00:53:57;1.77;;;1.17;;
47812;SDS011;34221;45.296;9.516;2023-06-19T00:54:12;1.15;;;0.90;;
47812;SDS011;34221;45.296;9.516;2023-06-19T00:54:47;1.52;;;1.20;;
47812;SDS011;34221;45.296;9.516;2023-06-19T00:55:02;1.50;;;1.17;;
47812;SDS011;34221;45.296;9.516;2023-06-19T00:55:18;1.25;;;1.02;;
47812;SDS011;34221;45.296;9.516;2023-06-19T00:55:33;1.55;;;1.10;;
47812;SDS011;34221;45.296;9.516;2023-06-19T00:55:48;1.70;;;1.30;;
47812;SDS011;34221;45.296;9.516;2023-06-19T00:56:05;1.40;;;1.10;;
47812;SDS011;34221;45.296;9.516;2023-06-19T00:56:20;1.30;;;1.05;;
47812;SDS011;34221;45.296;9.516;2023-06-19T00:56:36;1.45;;;1.15;;
47812;SDS011;34221;45.296;9.516;2023-06-19T00:56:52;1.83;;;1.20;;
47812;SDS011;34221;45.296;9.516;2023-06-19T00:57:08;1.77;;;1.20;;
47812;SDS011;34221;45.296;9.516;2023-06-19T00:57:23;1.80;;;1.27;;
47812;SDS011;34221;45.296;9.516;2023-06-19T00:57:38;1.80;;;1.20;;
47812;SDS011;34221;45.296;9.516;2023-06-19T00:57:54;1.30;;;1.00;;
47812;SDS011;34221;45.296;9.516;2023-06-19T00:58:09;1.17;;;1.00;;
47812;SDS011;34221;45.296;9.516;2023-06-19T00:58:24;1.40;;;1.10;;
47812;SDS011;34221;45.296;9.516;2023-06-19T00:58:40;1.50;;;1.10;;
47812;SDS011;34221;45.296;9.516;2023-06-19T00:58:55;1.67;;;1.20;;
47812;SDS011;34221;45.296;9.516;2023-06-19T00:59:15;1.67;;;1.20;;
47812;SDS011;34221;45.296;9.516;2023-06-19T00:59:34;1.75;;;1.20;;
47812;SDS011;34221;45.296;9.516;2023-06-19T00:59:49;1.63;;;1.20;;
47812;SDS011;34221;45.296;9.516;2023-06-19T01:00:07;1.77;;;1.30;;
47812;SDS011;34221;45.296;9.516;2023-06-19T01:00:22;1.70;;;1.27;;
47812;SDS011;34221;45.296;9.516;2023-06-19T01:00:37;1.57;;;1.30;;
47812;SDS011;34221;45.296;9.516;2023-06-19T01:00:52;1.48;;;1.20;;
47812;SDS011;34221;45.296;9.516;2023-06-19T01:01:07;1.60;;;1.25;;
47812;SDS011;34221;45.296;9.516;2023-06-19T01:01:22;1.63;;;1.27;;
47812;SDS011;34221;45.296;9.516;2023-06-19T01:01:40;1.77;;;1.30;;
47812;SDS011;34221;45.296;9.516;2023-06-19T01:01:56;1.80;;;1.27;;
47812;SDS011;34221;45.296;9.516;2023-06-19T01:02:11;1.42;;;1.10;;
47812;SDS011;34221;45.296;9.516;2023-06-19T01:02:26;1.47;;;1.10;;
47812;SDS011;34221;45.296;9.516;2023-06-19T01:02:41;1.65;;;1.20;;
47812;SDS011;34221;45.296;9.516;2023-06-19T01:02:56;1.87;;;1.30;;
47812;SDS011;34221;45.296;9.516;2023-06-19T01:03:14;2.17;;;1.38;;
47812;SDS011;34221;45.296;9.516;2023-06-19T01:03:30;1.80;;;1.20;;
47812;SDS011;34221;45.296;9.516;2023-06-19T01:03:45;1.60;;;1.20;;
47812;SDS011;34221;45.296;9.516;2023-06-19T01:03:59;1.73;;;1.20;;
47812;SDS011;34221;45.296;9.516;2023-06-19T01:04:14;1.50;;;1.10;;
47812;SDS011;34221;45.296;9.516;2023-06-19T01:04:29;1.58;;;1.20;;
47812;SDS011;34221;45.296;9.516;2023-06-19T01:04:44;1.40;;;1.10;;
47812;SDS011;34221;45.296;9.516;2023-06-19T01:04:59;1.35;;;1.10;;
47812;SDS011;34221;45.296;9.516;2023-06-19T01:05:14;1.63;;;1.30;;
47812;SDS011;34221;45.296;9.516;2023-06-19T01:05:29;1.88;;;1.42;;
47812;SDS011;34221;45.296;9.516;2023-06-19T01:05:44;1.73;;;1.38;;
47812;SDS011;34221;45.296;9.516;2023-06-19T01:06:05;1.77;;;1.30;;
47812;SDS011;34221;45.296;9.516;2023-06-19T01:06:25;1.55;;;1.10;;
47812;SDS011;34221;45.296;9.516;2023-06-19T01:06:59;1.70;;;1.25;;
47812;SDS011;34221;45.296;9.516;2023-06-19T01:07:59;2.35;;;1.50;;
47812;SDS011;34221;45.296;9.516;2023-06-19T01:09:13;1.83;;;1.25;;
47812;SDS011;34221;45.296;9.516;2023-06-19T01:09:31;1.50;;;1.20;;
47812;SDS011;34221;45.296;9.516;2023-06-19T01:09:51;2.00;;;1.40;;
47812;SDS011;34221;45.296;9.516;2023-06-19T01:10:14;2.17;;;1.52;;
47812;SDS011;34221;45.296;9.516;2023-06-19T01:10:33;2.08;;;1.48;;
47812;SDS011;34221;45.296;9.516;2023-06-19T01:10:56;1.60;;;1.20;;
47812;SDS011;34221;45.296;9.516;2023-06-19T01:11:13;1.55;;;1.23;;
47812;SDS011;34221;45.296;9.516;2023-06-19T01:11:33;1.45;;;1.13;;
47812;SDS011;34221;45.296;9.516;2023-06-19T01:11:58;1.63;;;1.20;;
47812;SDS011;34221;45.296;9.516;2023-06-19T01:12:23;1.80;;;1.40;;
47812;SDS011;34221;45.296;9.516;2023-06-19T01:12:46;2.10;;;1.52;;
47812;SDS011;34221;45.296;9.516;2023-06-19T01:13:10;2.75;;;1.80;;
47812;SDS011;34221;45.296;9.516;2023-06-19T01:13:56;2.00;;;1.60;;
47812;SDS011;34221;45.296;9.516;2023-06-19T01:14:26;2.15;;;1.60;;
47812;SDS011;34221;45.296;9.516;2023-06-19T01:14:59;2.42;;;1.88;;
47812;SDS011;34221;45.296;9.516;2023-06-19T01:15:17;2.15;;;1.50;;
47812;SDS011;34221;45.296;9.516;2023-06-19T01:15:32;2.30;;;1.60;;
47812;SDS011;34221;45.296;9.516;2023-06-19T01:15:47;2.20;;;1.52;;
47812;SDS011;34221;45.296;9.516;2023-06-19T01:16:02;2.25;;;1.50;;
47812;SDS011;34221;45.296;9.516;2023-06-19T01:16:18;2.13;;;1.60;;
47812;SDS011;34221;45.296;9.516;2023-06-19T01:16:37;2.13;;;1.50;;
47812;SDS011;34221;45.296;9.516;2023-06-19T01:16:55;1.77;;;1.40;;
47812;SDS011;34221;45.296;9.516;2023-06-19T01:17:13;2.08;;;1.50;;
47812;SDS011;34221;45.296;9.516;2023-06-19T01:17:29;2.60;;;1.88;;
47812;SDS011;34221;45.296;9.516;2023-06-19T01:17:44;2.13;;;1.60;;
47812;SDS011;34221;45.296;9.516;2023-06-19T01:18:02;2.30;;;1.42;;
47812;SDS011;34221;45.296;9.516;2023-06-19T01:18:18;2.33;;;1.65;;
47812;SDS011;34221;45.296;9.516;2023-06-19T01:18:33;2.28;;;1.70;;
47812;SDS011;34221;45.296;9.516;2023-06-19T01:18:49;2.08;;;1.48;;
47812;SDS011;34221;45.296;9.516;2023-06-19T01:19:05;1.83;;;1.40;;
47812;SDS011;34221;45.296;9.516;2023-06-19T01:19:23;1.98;;;1.50;;
47812;SDS011;34221;45.296;9.516;2023-06-19T01:19:40;2.22;;;1.55;;
47812;SDS011;34221;45.296;9.516;2023-06-19T01:19:55;2.30;;;1.52;;
47812;SDS011;34221;45.296;9.516;2023-06-19T01:20:11;2.22;;;1.60;;
47812;SDS011;34221;45.296;9.516;2023-06-19T01:20:27;2.35;;;1.67;;
47812;SDS011;34221;45.296;9.516;2023-06-19T01:20:43;1.98;;;1.50;;
47812;SDS011;34221;45.296;9.516;2023-06-19T01:21:14;1.80;;;1.38;;
47812;SDS011;34221;45.296;9.516;2023-06-19T01:21:30;1.70;;;1.27;;
47812;SDS011;34221;45.296;9.516;2023-06-19T01:21:45;1.77;;;1.33;;
47812;SDS011;34221;45.296;9.516;2023-06-19T01:22:01;1.70;;;1.30;;
47812;SDS011;34221;45.296;9.516;2023-06-19T01:22:30;1.95;;;1.40;;
47812;SDS011;34221;45.296;9.516;2023-06-19T01:22:48;1.92;;;1.40;;
47812;SDS011;34221;45.296;9.516;2023-06-19T01:23:06;1.75;;;1.38;;
47812;SDS011;34221;45.296;9.516;2023-06-19T01:23:24;1.70;;;1.20;;
47812;SDS011;34221;45.296;9.516;2023-06-19T01:23:39;1.90;;;1.20;;
47812;SDS011;34221;45.296;9.516;2023-06-19T01:23:54;1.73;;;1.25;;
47812;SDS011;34221;45.296;9.516;2023-06-19T01:24:09;1.67;;;1.27;;
47812;SDS011;34221;45.296;9.516;2023-06-19T01:24:44;1.90;;;1.48;;
47812;SDS011;34221;45.296;9.516;2023-06-19T01:24:59;1.80;;;1.40;;
47812;SDS011;34221;45.296;9.516;2023-06-19T01:25:14;1.70;;;1.30;;
47812;SDS011;34221;45.296;9.516;2023-06-19T01:25:29;1.70;;;1.30;;
47812;SDS011;34221;45.296;9.516;2023-06-19T01:25:43;1.88;;;1.33;;
47812;SDS011;34221;45.296;9.516;2023-06-19T01:25:59;2.14;;;1.40;;
47812;SDS011;34221;45.296;9.516;2023-06-19T01:26:15;2.27;;;1.40;;
47812;SDS011;34221;45.296;9.516;2023-06-19T01:26:30;1.77;;;1.17;;
47812;SDS011;34221;45.296;9.516;2023-06-19T01:26:45;1.50;;;1.10;;
47812;SDS011;34221;45.296;9.516;2023-06-19T01:27:00;1.83;;;1.23;;
47812;SDS011;34221;45.296;9.516;2023-06-19T01:27:15;1.83;;;1.20;;
47812;SDS011;34221;45.296;9.516;2023-06-19T01:27:30;2.00;;;1.30;;
47812;SDS011;34221;45.296;9.516;2023-06-19T01:27:47;1.80;;;1.30;;
47812;SDS011;34221;45.296;9.516;2023-06-19T01:28:02;1.67;;;1.30;;
47812;SDS011;34221;45.296;9.516;2023-06-19T01:28:20;1.60;;;1.20;;
47812;SDS011;34221;45.296;9.516;2023-06-19T01:28:36;1.50;;;1.20;;
47812;SDS011;34221;45.296;9.516;2023-06-19T01:28:54;1.40;;;1.20;;
47812;SDS011;34221;45.296;9.516;2023-06-19T01:29:10;1.10;;;1.00;;
47812;SDS011;34221;45.296;9.516;2023-06-19T01:29:29;1.58;;;1.10;;
47812;SDS011;34221;45.296;9.516;2023-06-19T01:29:45;2.03;;;1.30;;
47812;SDS011;34221;45.296;9.516;2023-06-19T01:30:01;1.88;;;1.27;;
47812;SDS011;34221;45.296;9.516;2023-06-19T01:30:19;1.83;;;1.40;;
47812;SDS011;34221;45.296;9.516;2023-06-19T01:30:34;1.80;;;1.38;;
47812;SDS011;34221;45.296;9.516;2023-06-19T01:30:50;1.85;;;1.33;;
47812;SDS011;34221;45.296;9.516;2023-06-19T01:31:11;1.52;;;1.20;;
47812;SDS011;34221;45.296;9.516;2023-06-19T01:31:31;1.50;;;1.10;;
47812;SDS011;34221;45.296;9.516;2023-06-19T01:32:18;1.60;;;1.20;;
47812;SDS011;34221;45.296;9.516;2023-06-19T01:33:04;2.00;;;1.30;;
47812;SDS011;34221;45.296;9.516;2023-06-19T01:33:20;1.50;;;1.10;;
47812;SDS011;34221;45.296;9.516;2023-06-19T01:33:40;1.77;;;1.30;;
47812;SDS011;34221;45.296;9.516;2023-06-19T01:33:57;2.00;;;1.40;;
47812;SDS011;34221;45.296;9.516;2023-06-19T01:34:15;2.13;;;1.40;;
47812;SDS011;34221;45.296;9.516;2023-06-19T01:34:32;2.60;;;1.63;;
47812;SDS011;34221;45.296;9.516;2023-06-19T01:34:49;2.40;;;1.70;;
47812;SDS011;34221;45.296;9.516;2023-06-19T01:35:06;1.98;;;1.50;;
47812;SDS011;34221;45.296;9.516;2023-06-19T01:35:25;2.00;;;1.50;;
47812;SDS011;34221;45.296;9.516;2023-06-19T01:35:43;1.85;;;1.42;;
47812;SDS011;34221;45.296;9.516;2023-06-19T01:35:59;1.92;;;1.50;;
47812;SDS011;34221;45.296;9.516;2023-06-19T01:36:17;2.50;;;1.70;;
47812;SDS011;34221;45.296;9.516;2023-06-19T01:36:33;2.45;;;1.52;;
47812;SDS011;34221;45.296;9.516;2023-06-19T01:36:49;2.50;;;1.60;;
47812;SDS011;34221;45.296;9.516;2023-06-19T01:37:05;2.20;;;1.50;;
47812;SDS011;34221;45.296;9.516;2023-06-19T01:37:21;2.20;;;1.50;;
47812;SDS011;34221;45.296;9.516;2023-06-19T01:37:37;1.83;;;1.30;;
47812;SDS011;34221;45.296;9.516;2023-06-19T01:37:53;2.20;;;1.40;;
47812;SDS011;34221;45.296;9.516;2023-06-19T01:38:09;1.95;;;1.33;;
47812;SDS011;34221;45.296;9.516;2023-06-19T01:38:26;1.60;;;1.20;;
47812;SDS011;34221;45.296;9.516;2023-06-19T01:38:43;1.80;;;1.30;;
47812;SDS011;34221;45.296;9.516;2023-06-19T01:38:59;1.75;;;1.30;;
47812;SDS011;34221;45.296;9.516;2023-06-19T01:39:15;1.60;;;1.20;;
47812;SDS011;34221;45.296;9.516;2023-06-19T01:39:31;1.58;;;1.17;;
47812;SDS011;34221;45.296;9.516;2023-06-19T01:39:47;1.92;;;1.30;;
47812;SDS011;34221;45.296;9.516;2023-06-19T01:40:03;1.73;;;1.23;;
47812;SDS011;34221;45.296;9.516;2023-06-19T01:40:20;1.60;;;1.20;;
47812;SDS011;34221;45.296;9.516;2023-06-19T01:40:40;1.15;;;0.90;;
47812;SDS011;34221;45.296;9.516;2023-06-19T01:40:56;1.50;;;1.05;;
47812;SDS011;34221;45.296;9.516;2023-06-19T01:41:13;1.52;;;1.13;;
47812;SDS011;34221;45.296;9.516;2023-06-19T01:41:30;1.70;;;1.15;;
47812;SDS011;34221;45.296;9.516;2023-06-19T01:41:46;1.65;;;1.10;;